createdAt,value
2019-02-23T00:00:29.687Z,103937.80
2019-02-23T00:01:35.748Z,103933.80
2019-02-23T00:08:00.042Z,103934.02
2019-02-23T00:09:05.277Z,103929.22
2019-02-23T00:10:11.121Z,103927.68
2019-02-23T00:14:27.203Z,103926.74
2019-02-23T00:15:31.617Z,103929.77
2019-02-23T00:16:36.035Z,103935.39
2019-02-23T00:19:47.734Z,103930.50
2019-02-23T00:22:59.430Z,103936.13
2019-02-23T00:25:07.515Z,103934.71
2019-02-23T00:26:11.929Z,103940.38
2019-02-23T00:28:19.937Z,103941.77
2019-02-23T00:29:24.345Z,103936.47
2019-02-23T00:30:28.748Z,103943.40
2019-02-23T00:33:40.351Z,103948.42
2019-02-23T00:35:48.428Z,103947.86
2019-02-23T00:40:04.395Z,103952.17
2019-02-23T00:41:08.796Z,103965.59
2019-02-23T00:42:13.165Z,103959.88
2019-02-23T00:43:17.655Z,103957.68
2019-02-23T00:44:21.987Z,103957.68
2019-02-23T00:46:29.985Z,103959.88
2019-02-23T00:47:34.392Z,103959.72
2019-02-23T00:51:51.798Z,103956.02
2019-02-23T00:55:03.520Z,103961.16
2019-02-23T00:59:18.877Z,103963.77
2019-02-23T01:01:26.885Z,103958.64
2019-02-23T01:02:31.317Z,103950.81
2019-02-23T01:03:35.696Z,103945.27
2019-02-23T01:05:44.019Z,103950.03
2019-02-23T01:07:52.476Z,103941.20
2019-02-23T01:14:14.811Z,103945.56
2019-02-23T01:18:31.019Z,103942.27
2019-02-23T01:19:35.395Z,103939.70
2019-02-23T01:21:43.413Z,103935.34
2019-02-23T01:22:47.819Z,103933.95
2019-02-23T01:24:55.818Z,103933.88
2019-02-23T01:26:00.203Z,103938.69
2019-02-23T01:27:05.448Z,103942.19
2019-02-23T01:36:39.712Z,103931.31
2019-02-23T01:37:44.342Z,103932.53
2019-02-23T01:39:52.431Z,103923.81
2019-02-23T01:40:56.944Z,103922.03
2019-02-23T01:46:17.053Z,103921.66
2019-02-23T01:47:21.445Z,103924.19
2019-02-23T01:49:29.463Z,103922.39
2019-02-23T01:50:35.605Z,103926.38
2019-02-23T01:51:40.023Z,103926.38
2019-02-23T01:53:48.022Z,103922.88
2019-02-23T01:55:56.459Z,103931.47
2019-02-23T01:59:09.364Z,103930.49
2019-02-23T02:01:18.279Z,103931.72
2019-02-23T02:03:27.104Z,103930.73
2019-02-23T02:05:35.193Z,103935.00
2019-02-23T02:08:46.819Z,103929.22
2019-02-23T02:10:55.719Z,103937.77
2019-02-23T02:12:00.217Z,103936.96
2019-02-23T02:14:08.319Z,103937.86
2019-02-23T02:17:21.654Z,103933.38
2019-02-23T02:21:36.834Z,103937.97
2019-02-23T02:22:41.318Z,103941.87
2019-02-23T02:24:49.336Z,103940.49
2019-02-23T02:30:10.163Z,103936.78
2019-02-23T02:32:18.142Z,103944.10
2019-02-23T02:33:22.775Z,103943.53
2019-02-23T02:37:38.053Z,103945.65
2019-02-23T02:39:46.267Z,103943.31
2019-02-23T02:41:54.347Z,103947.63
2019-02-23T02:44:02.359Z,103948.03
2019-02-23T02:46:12.815Z,103943.06
2019-02-23T02:47:17.230Z,103942.66
2019-02-23T02:48:21.645Z,103942.17
2019-02-23T02:51:33.195Z,103933.45
2019-02-23T02:52:37.637Z,103937.36
2019-02-23T02:53:42.264Z,103934.67
2019-02-23T02:57:57.431Z,103927.95
2019-02-23T03:03:19.167Z,103926.48
2019-02-23T03:04:23.635Z,103924.69
2019-02-23T03:05:28.010Z,103929.89
2019-02-23T03:06:32.712Z,103928.55
2019-02-23T03:07:37.229Z,103928.95
2019-02-23T03:09:45.227Z,103927.48
2019-02-23T03:10:49.946Z,103928.05
2019-02-23T03:12:57.899Z,103921.78
2019-02-23T03:14:02.350Z,103922.54
2019-02-23T03:16:10.969Z,103928.56
2019-02-23T03:17:15.327Z,103932.06
2019-02-23T03:18:19.702Z,103928.56
2019-02-23T03:20:36.166Z,103923.67
2019-02-23T03:22:37.828Z,103927.58
2019-02-23T03:24:46.136Z,103930.19
2019-02-23T03:27:57.816Z,103932.13
2019-02-23T03:31:12.394Z,103931.67
2019-02-23T03:32:16.768Z,103933.78
2019-02-23T03:34:24.773Z,103932.48
2019-02-23T03:35:29.423Z,103927.10
2019-02-23T03:36:33.807Z,103927.10
2019-02-23T03:37:38.237Z,103928.23
2019-02-23T03:38:42.635Z,103927.02
2019-02-23T03:39:48.491Z,103924.33
2019-02-23T03:40:53.296Z,103918.17
2019-02-23T03:43:01.300Z,103921.59
2019-02-23T03:46:12.999Z,103922.72
2019-02-23T03:48:22.009Z,103919.22
2019-02-23T03:49:27.187Z,103928.73
2019-02-23T03:50:31.558Z,103928.73
2019-02-23T03:52:39.567Z,103923.30
2019-02-23T03:53:46.275Z,103923.22
2019-02-23T03:54:50.623Z,103920.62
2019-02-23T03:56:58.628Z,103921.19
2019-02-23T03:58:03.039Z,103925.82
2019-02-23T03:59:07.553Z,103923.54
2019-02-23T04:00:11.944Z,103926.95
2019-02-23T04:03:24.081Z,103928.11
2019-02-23T04:04:29.393Z,103927.22
2019-02-23T04:06:37.991Z,103936.73
2019-02-23T04:07:42.413Z,103930.63
2019-02-23T04:08:47.587Z,103931.44
2019-02-23T04:09:52.066Z,103934.13
2019-02-23T04:10:56.763Z,103930.54
2019-02-23T04:17:20.158Z,103935.43
2019-02-23T04:18:24.588Z,103935.43
2019-02-23T04:20:32.878Z,103931.76
2019-02-23T04:21:37.253Z,103934.77
2019-02-23T04:25:53.117Z,103935.66
2019-02-23T04:28:01.157Z,103941.36
2019-02-23T04:29:05.897Z,103942.52
2019-02-23T04:30:10.307Z,103945.84
2019-02-23T04:31:14.731Z,103943.73
2019-02-23T04:32:19.331Z,103947.14
2019-02-23T04:33:23.704Z,103940.45
2019-02-23T04:34:28.146Z,103940.86
2019-02-23T04:35:32.562Z,103945.66
2019-02-23T04:36:36.970Z,103944.27
2019-02-23T04:37:41.341Z,103939.02
2019-02-23T04:39:49.381Z,103950.63
2019-02-23T04:43:00.974Z,103949.73
2019-02-23T04:45:09.061Z,103950.45
2019-02-23T04:50:28.030Z,103947.27
2019-02-23T04:51:32.453Z,103952.02
2019-02-23T04:52:37.975Z,103943.72
2019-02-23T04:53:42.405Z,103944.94
2019-02-23T04:57:57.581Z,103946.63
2019-02-23T05:03:20.588Z,103945.56
2019-02-23T05:04:24.951Z,103944.66
2019-02-23T05:05:29.454Z,103940.21
2019-02-23T05:09:44.575Z,103947.03
2019-02-23T05:12:56.239Z,103935.73
2019-02-23T05:15:06.284Z,103940.75
2019-02-23T05:19:21.465Z,103948.73
2019-02-23T05:20:25.853Z,103944.25
2019-02-23T05:21:30.273Z,103950.34
2019-02-23T05:22:34.741Z,103944.19
2019-02-23T05:24:42.797Z,103945.95
2019-02-23T05:25:47.204Z,103943.30
2019-02-23T05:27:55.198Z,103946.61
2019-02-23T05:30:03.567Z,103942.22
2019-02-23T05:33:15.218Z,103933.28
2019-02-23T05:34:19.850Z,103934.59
2019-02-23T05:37:31.730Z,103934.59
2019-02-23T05:39:39.729Z,103933.91
2019-02-23T05:41:47.753Z,103930.81
2019-02-23T05:43:00.464Z,103929.42
2019-02-23T05:43:58.596Z,103934.63
2019-02-23T05:47:11.004Z,103936.33
2019-02-23T05:48:15.416Z,103933.73
2019-02-23T05:51:38.141Z,103930.67
2019-02-23T05:52:33.673Z,103936.27
2019-02-23T05:54:41.760Z,103936.27
2019-02-23T05:56:49.767Z,103928.47
2019-02-23T05:57:54.181Z,103932.28
2019-02-23T06:00:02.178Z,103930.39
2019-02-23T06:01:07.603Z,103926.49
2019-02-23T06:02:11.974Z,103929.09
2019-02-23T06:03:16.629Z,103929.81
2019-02-23T06:05:24.977Z,103927.21
2019-02-23T06:07:33.004Z,103925.36
2019-02-23T06:11:49.637Z,103928.86
2019-02-23T06:12:54.885Z,103923.56
2019-02-23T06:13:59.283Z,103927.47
2019-02-23T06:16:09.237Z,103915.67
2019-02-23T06:19:21.037Z,103922.83
2019-02-23T06:22:32.665Z,103917.45
2019-02-23T06:25:45.341Z,103920.63
2019-02-23T06:30:10.900Z,103921.84
2019-02-23T06:35:30.254Z,103926.86
2019-02-23T06:36:34.641Z,103927.66
2019-02-23T06:37:39.104Z,103929.45
2019-02-23T06:38:43.472Z,103931.66
2019-02-23T06:42:58.652Z,103924.91
2019-02-23T06:44:04.210Z,103926.21
2019-02-23T06:45:10.768Z,103928.87
2019-02-23T06:46:15.145Z,103929.77
2019-02-23T06:47:20.068Z,103937.41
2019-02-23T06:48:24.414Z,103936.11
2019-02-23T06:49:28.804Z,103937.41
2019-02-23T06:50:33.214Z,103944.46
2019-02-23T06:53:44.828Z,103946.66
2019-02-23T06:54:49.204Z,103946.75
2019-02-23T06:59:04.692Z,103947.34
2019-02-23T07:00:12.981Z,103948.64
2019-02-23T07:01:17.938Z,103945.36
2019-02-23T07:02:22.342Z,103942.85
2019-02-23T07:04:30.325Z,103946.53
2019-02-23T07:05:34.710Z,103947.92
2019-02-23T07:06:39.108Z,103950.19
2019-02-23T07:08:47.350Z,103952.97
2019-02-23T07:09:51.773Z,103949.66
2019-02-23T07:10:56.180Z,103947.55
2019-02-23T07:15:11.345Z,103953.64
2019-02-23T07:16:15.769Z,103950.79
2019-02-23T07:17:20.341Z,103946.27
2019-02-23T07:18:24.694Z,103945.92
2019-02-23T07:19:29.083Z,103949.69
2019-02-23T07:22:41.593Z,103949.44
2019-02-23T07:23:46.009Z,103947.23
2019-02-23T07:25:54.021Z,103949.52
2019-02-23T07:26:58.419Z,103951.41
2019-02-23T07:30:12.267Z,103943.76
2019-02-23T07:32:20.500Z,103944.66
2019-02-23T07:33:32.893Z,103943.53
2019-02-23T07:36:38.418Z,103940.45
2019-02-23T07:38:46.590Z,103946.14
2019-02-23T07:39:50.929Z,103941.92
2019-02-23T07:41:58.893Z,103939.65
2019-02-23T07:43:03.489Z,103937.54
2019-02-23T07:45:11.545Z,103941.67
2019-02-23T07:46:16.978Z,103941.36
2019-02-23T07:47:21.382Z,103937.95
2019-02-23T07:48:25.802Z,103936.82
2019-02-23T07:49:30.285Z,103941.45
2019-02-23T07:50:34.628Z,103934.53
2019-02-23T07:51:39.025Z,103939.48
2019-02-23T07:53:47.132Z,103938.75
2019-02-23T07:55:55.428Z,103939.33
2019-02-23T07:56:59.845Z,103937.45
2019-02-23T08:00:13.074Z,103940.86
2019-02-23T08:02:21.084Z,103942.56
2019-02-23T08:03:25.463Z,103930.94
2019-02-23T08:04:29.887Z,103937.53
2019-02-23T08:05:34.796Z,103942.52
2019-02-23T08:09:49.999Z,103941.34
2019-02-23T08:11:58.515Z,103939.00
2019-02-23T08:16:14.846Z,103936.23
2019-02-23T08:17:19.217Z,103929.62
2019-02-23T08:18:23.596Z,103928.81
2019-02-23T08:19:28.056Z,103936.44
2019-02-23T08:20:32.769Z,103927.41
2019-02-23T08:24:48.045Z,103925.77
2019-02-23T08:25:53.712Z,103929.44
2019-02-23T08:26:59.866Z,103931.94
2019-02-23T08:28:04.342Z,103934.05
2019-02-23T08:29:09.503Z,103933.38
2019-02-23T08:31:19.801Z,103934.70
2019-02-23T08:36:41.431Z,103932.97
2019-02-23T08:37:47.123Z,103928.86
2019-02-23T08:38:51.718Z,103929.73
2019-02-23T08:40:59.711Z,103931.08
2019-02-23T08:47:22.174Z,103928.30
2019-02-23T08:48:26.592Z,103926.52
2019-02-23T08:50:34.589Z,103934.11
2019-02-23T08:51:38.995Z,103930.66
2019-02-23T08:55:54.275Z,103930.81
2019-02-23T08:56:58.684Z,103936.83
2019-02-23T08:58:03.097Z,103933.16
2019-02-23T09:01:17.507Z,103928.01
2019-02-23T09:03:25.561Z,103928.36
2019-02-23T09:05:33.556Z,103922.84
2019-02-23T09:06:37.931Z,103926.19
2019-02-23T09:10:53.519Z,103929.40
2019-02-23T09:11:57.937Z,103925.93
2019-02-23T09:13:02.570Z,103920.07
2019-02-23T09:14:06.997Z,103920.02
2019-02-23T09:16:15.300Z,103922.42
2019-02-23T09:18:23.301Z,103924.59
2019-02-23T09:22:38.582Z,103931.25
2019-02-23T09:24:46.666Z,103922.75
2019-02-23T09:26:54.677Z,103922.88
2019-02-23T09:27:59.089Z,103916.48
2019-02-23T09:30:11.686Z,103917.42
2019-02-23T09:32:19.608Z,103925.61
2019-02-23T09:33:23.987Z,103927.52
2019-02-23T09:34:28.375Z,103919.02
2019-02-23T09:35:32.789Z,103920.90
2019-02-23T09:36:37.235Z,103924.50
2019-02-23T09:37:41.655Z,103928.68
2019-02-23T09:39:49.753Z,103925.73
2019-02-23T09:42:07.262Z,103922.64
2019-02-23T09:44:07.903Z,103922.53
2019-02-23T09:47:19.903Z,103923.34
2019-02-23T09:49:28.003Z,103926.38
2019-02-23T09:51:36.099Z,103929.80
2019-02-23T09:54:48.305Z,103939.28
2019-02-23T09:56:56.405Z,103932.66
2019-02-23T09:58:01.633Z,103938.47
2019-02-23T09:59:06.133Z,103934.89
2019-02-23T10:01:17.256Z,103933.34
2019-02-23T10:03:25.328Z,103924.25
2019-02-23T10:05:33.433Z,103930.73
2019-02-23T10:06:37.856Z,103934.39
2019-02-23T10:09:49.919Z,103927.05
2019-02-23T10:10:54.345Z,103920.64
2019-02-23T10:14:07.599Z,103919.66
2019-02-23T10:18:23.070Z,103912.34
2019-02-23T10:20:31.368Z,103909.25
2019-02-23T10:21:35.785Z,103909.27
2019-02-23T10:26:55.862Z,103911.61
2019-02-23T10:29:03.901Z,103908.43
2019-02-23T10:30:11.754Z,103912.88
2019-02-23T10:35:30.512Z,103903.30
2019-02-23T10:37:39.342Z,103907.73
2019-02-23T10:38:43.770Z,103905.41
2019-02-23T10:39:48.182Z,103913.42
2019-02-23T10:40:52.583Z,103900.16
2019-02-23T10:41:57.112Z,103904.53
2019-02-23T10:44:06.117Z,103894.48
2019-02-23T10:45:12.025Z,103898.56
2019-02-23T10:48:24.663Z,103898.60
2019-02-23T10:49:29.042Z,103892.39
2019-02-23T10:50:33.510Z,103896.78
2019-02-23T10:52:41.612Z,103890.74
2019-02-23T10:53:46.102Z,103893.72
2019-02-23T11:01:16.879Z,103887.61
2019-02-23T11:02:21.597Z,103893.78
2019-02-23T11:04:29.702Z,103889.97
2019-02-23T11:05:34.218Z,103888.41
2019-02-23T11:06:38.644Z,103892.79
2019-02-23T11:10:54.286Z,103888.83
2019-02-23T11:13:02.260Z,103887.45
2019-02-23T11:14:07.796Z,103882.80
2019-02-23T11:16:17.014Z,103883.05
2019-02-23T11:18:25.008Z,103885.06
2019-02-23T11:19:30.125Z,103884.75
2019-02-23T11:21:38.966Z,103884.31
2019-02-23T11:23:46.967Z,103883.81
2019-02-23T11:24:51.368Z,103890.05
2019-02-23T11:28:04.044Z,103882.83
2019-02-23T11:32:24.276Z,103880.67
2019-02-23T11:33:28.764Z,103876.25
2019-02-23T11:37:45.047Z,103886.42
2019-02-23T11:38:49.416Z,103878.88
2019-02-23T11:39:54.876Z,103879.31
2019-02-23T11:45:14.808Z,103868.55
2019-02-23T11:46:19.214Z,103866.83
2019-02-23T11:47:23.619Z,103867.29
2019-02-23T11:48:28.038Z,103865.53
2019-02-23T11:49:32.427Z,103861.56
2019-02-23T11:50:36.787Z,103861.16
2019-02-23T11:54:52.037Z,103863.02
2019-02-23T11:55:56.549Z,103860.87
2019-02-23T11:57:01.143Z,103860.98
2019-02-23T12:00:13.993Z,103859.15
2019-02-23T12:02:22.081Z,103855.14
2019-02-23T12:03:26.460Z,103863.08
2019-02-23T12:04:30.907Z,103858.25
2019-02-23T12:06:38.914Z,103856.16
2019-02-23T12:11:58.731Z,103853.55
2019-02-23T12:13:03.216Z,103856.20
2019-02-23T12:14:07.625Z,103859.75
2019-02-23T12:16:15.716Z,103857.09
2019-02-23T12:19:28.307Z,103862.89
2019-02-23T12:22:40.237Z,103854.90
2019-02-23T12:23:45.463Z,103849.13
2019-02-23T12:29:04.317Z,103845.58
2019-02-23T12:32:19.624Z,103847.34
2019-02-23T12:39:45.771Z,103820.72
2019-02-23T12:40:50.185Z,103818.95
2019-02-23T12:41:54.628Z,103827.34
2019-02-23T12:45:09.088Z,103819.39
2019-02-23T12:51:31.757Z,103819.25
2019-02-23T12:54:43.311Z,103815.22
2019-02-23T12:57:54.921Z,103816.50
2019-02-23T13:00:05.049Z,103821.38
2019-02-23T13:05:25.526Z,103821.46
2019-02-23T13:06:29.966Z,103824.09
2019-02-23T13:10:57.339Z,103809.01
2019-02-23T13:12:34.774Z,103809.45
2019-02-23T13:13:45.608Z,103800.09
2019-02-23T13:22:46.929Z,103796.64
2019-02-23T13:25:06.671Z,103790.45
2019-02-23T13:29:59.048Z,103790.44
2019-02-23T13:31:07.284Z,103789.55
2019-02-23T13:37:26.009Z,103791.77
2019-02-23T13:38:43.380Z,103794.52
2019-02-23T13:53:24.384Z,103784.39
2019-02-23T13:57:17.801Z,103784.77
2019-02-23T14:04:34.369Z,103787.46
2019-02-23T14:10:09.629Z,103790.09
2019-02-23T14:12:33.060Z,103787.42
2019-02-23T14:15:01.621Z,103781.18
2019-02-23T14:19:09.213Z,103779.41
2019-02-23T14:32:55.710Z,103784.33
2019-02-23T14:34:06.887Z,103783.51
2019-02-23T14:39:44.452Z,103777.34
2019-02-23T14:40:59.826Z,103777.80
2019-02-23T14:42:09.975Z,103775.64
2019-02-23T14:43:22.290Z,103772.97
2019-02-23T14:44:33.404Z,103771.20
2019-02-23T14:45:50.572Z,103767.23
2019-02-23T14:49:55.336Z,103776.08
2019-02-23T14:53:46.179Z,103768.13
2019-02-23T14:57:52.888Z,103765.09
2019-02-23T14:59:06.458Z,103761.11
2019-02-23T15:00:18.759Z,103753.14
2019-02-23T15:02:47.368Z,103750.94
2019-02-23T15:04:04.602Z,103749.16
2019-02-23T15:05:22.733Z,103744.72
2019-02-23T15:07:47.542Z,103752.69
2019-02-23T15:14:27.994Z,103750.47
2019-02-23T15:21:18.651Z,103744.20
2019-02-23T15:27:25.636Z,103732.67
2019-02-23T15:29:46.287Z,103731.75
2019-02-23T15:31:10.775Z,103734.38
2019-02-23T15:32:24.130Z,103735.27
2019-02-23T15:35:02.973Z,103727.57
2019-02-23T15:38:52.667Z,103723.62
2019-02-23T15:40:07.254Z,103728.47
2019-02-23T15:42:28.108Z,103731.06
2019-02-23T15:44:52.069Z,103721.70
2019-02-23T15:47:57.213Z,103723.39
2019-02-23T15:50:14.373Z,103721.50
2019-02-23T15:51:20.033Z,103721.45
2019-02-23T15:53:28.264Z,103722.66
2019-02-23T15:54:33.554Z,103734.84
2019-02-23T15:55:37.951Z,103735.71
2019-02-23T15:59:53.679Z,103733.73
2019-02-23T16:03:05.285Z,103727.73
2019-02-23T16:05:13.694Z,103724.06
2019-02-23T16:07:21.728Z,103720.86
2019-02-23T16:09:30.562Z,103718.50
2019-02-23T16:11:39.637Z,103719.49
2019-02-23T16:14:52.703Z,103720.63
2019-02-23T16:18:04.756Z,103723.92
2019-02-23T16:19:10.688Z,103723.41
2019-02-23T16:21:18.663Z,103718.05
2019-02-23T16:23:35.231Z,103721.03
2019-02-23T16:24:34.059Z,103718.80
2019-02-23T16:25:38.702Z,103718.34
2019-02-23T16:27:47.844Z,103715.58
2019-02-23T16:28:52.328Z,103719.53
2019-02-23T16:30:00.040Z,103719.13
2019-02-23T16:31:04.792Z,103722.17
2019-02-23T16:32:09.569Z,103718.24
2019-02-23T16:34:17.559Z,103730.84
2019-02-23T16:36:25.595Z,103732.06
2019-02-23T16:39:40.389Z,103736.28
2019-02-23T16:40:43.629Z,103730.88
2019-02-23T16:42:51.712Z,103727.61
2019-02-23T16:43:57.232Z,103728.06
2019-02-23T16:47:08.842Z,103738.58
2019-02-23T16:48:13.256Z,103735.06
2019-02-23T16:49:17.670Z,103740.33
2019-02-23T16:50:22.177Z,103738.09
2019-02-23T16:51:27.603Z,103740.63
2019-02-23T16:54:41.140Z,103737.41
2019-02-23T16:55:50.992Z,103736.94
2019-02-23T17:00:07.584Z,103730.09
2019-02-23T17:02:17.942Z,103736.11
2019-02-23T17:03:22.438Z,103731.63
2019-02-23T17:05:30.458Z,103735.12
2019-02-23T17:07:38.598Z,103733.16
2019-02-23T17:11:54.150Z,103730.17
2019-02-23T17:16:10.353Z,103732.11
2019-02-23T17:17:14.963Z,103727.70
2019-02-23T17:19:22.982Z,103732.88
2019-02-23T17:20:27.576Z,103729.79
2019-02-23T17:21:33.010Z,103730.60
2019-02-23T17:22:37.389Z,103738.84
2019-02-23T17:29:00.103Z,103728.69
2019-02-23T17:30:06.759Z,103727.76
2019-02-23T17:31:11.269Z,103727.68
2019-02-23T17:33:19.269Z,103730.61
2019-02-23T17:34:24.557Z,103713.84
2019-02-23T17:35:29.112Z,103718.56
2019-02-23T17:38:40.784Z,103726.75
2019-02-23T17:39:45.120Z,103724.92
2019-02-23T17:40:49.603Z,103730.52
2019-02-23T17:41:54.281Z,103727.80
2019-02-23T17:45:08.886Z,103730.34
2019-02-23T17:49:24.738Z,103727.84
2019-02-23T17:51:33.015Z,103726.85
2019-02-23T17:52:37.369Z,103724.18
2019-02-23T17:53:41.761Z,103730.61
2019-02-23T17:55:49.755Z,103726.53
2019-02-23T17:59:01.353Z,103730.61
2019-02-23T18:00:10.388Z,103728.36
2019-02-23T18:01:15.037Z,103725.69
2019-02-23T18:02:19.469Z,103728.73
2019-02-23T18:03:23.944Z,103728.31
2019-02-23T18:07:40.252Z,103721.83
2019-02-23T18:09:49.183Z,103721.69
2019-02-23T18:13:00.825Z,103711.41
2019-02-23T18:14:05.248Z,103713.20
2019-02-23T18:15:09.991Z,103713.14
2019-02-23T18:16:14.417Z,103709.58
2019-02-23T18:17:18.823Z,103713.84
2019-02-23T18:18:23.222Z,103708.48
2019-02-23T18:20:31.219Z,103703.98
2019-02-23T18:22:39.439Z,103706.87
2019-02-23T18:24:47.426Z,103707.72
2019-02-23T18:27:59.033Z,103707.98
2019-02-23T18:29:03.459Z,103710.50
2019-02-23T18:30:10.865Z,103712.17
2019-02-23T18:32:20.560Z,103716.91
2019-02-23T18:34:28.568Z,103712.86
2019-02-23T18:36:36.659Z,103714.86
2019-02-23T18:42:59.768Z,103713.64
2019-02-23T18:45:08.304Z,103719.20
2019-02-23T18:47:16.311Z,103713.89
2019-02-23T18:48:21.567Z,103718.20
2019-02-23T18:50:29.693Z,103710.63
2019-02-23T18:51:34.101Z,103712.30
2019-02-23T18:52:38.611Z,103710.86
2019-02-23T18:56:53.875Z,103717.98
2019-02-23T18:57:58.308Z,103709.98
2019-02-23T18:59:02.695Z,103707.41
2019-02-23T19:00:10.374Z,103703.84
2019-02-23T19:01:14.953Z,103704.69
2019-02-23T19:06:34.500Z,103701.94
2019-02-23T19:07:39.818Z,103700.05
2019-02-23T19:08:45.451Z,103703.98
2019-02-23T19:10:53.465Z,103707.43
2019-02-23T19:13:02.296Z,103697.84
2019-02-23T19:15:12.460Z,103694.45
2019-02-23T19:16:16.951Z,103697.02
2019-02-23T19:17:21.457Z,103697.02
2019-02-23T19:19:29.768Z,103700.42
2019-02-23T19:21:37.870Z,103699.46
2019-02-23T19:22:42.288Z,103694.11
2019-02-23T19:34:27.355Z,103706.62
2019-02-23T19:42:57.414Z,103721.48
2019-02-23T19:44:02.145Z,103715.77
2019-02-23T19:45:08.972Z,103718.25
2019-02-23T19:46:13.382Z,103721.70
2019-02-23T19:51:38.573Z,103715.74
2019-02-23T19:55:54.899Z,103714.32
2019-02-23T19:56:59.287Z,103716.82
2019-02-23T20:00:11.964Z,103722.81
2019-02-23T20:03:23.813Z,103727.45
2019-02-23T20:04:29.119Z,103727.43
2019-02-23T20:05:33.640Z,103726.48
2019-02-23T20:08:45.344Z,103730.76
2019-02-23T20:09:49.749Z,103728.14
2019-02-23T20:10:54.157Z,103731.95
2019-02-23T20:11:58.878Z,103734.48
2019-02-23T20:20:29.216Z,103740.16
2019-02-23T20:22:37.217Z,103739.75
2019-02-23T20:24:45.220Z,103743.17
2019-02-23T20:25:49.956Z,103742.22
2019-02-23T20:26:55.861Z,103739.95
2019-02-23T20:28:01.707Z,103743.47
2019-02-23T20:29:06.195Z,103741.62
2019-02-23T20:32:18.984Z,103742.45
2019-02-23T20:36:34.455Z,103745.75
2019-02-23T20:38:42.973Z,103753.95
2019-02-23T20:39:47.409Z,103757.46
2019-02-23T20:40:52.101Z,103756.06
2019-02-23T20:43:00.087Z,103760.24
2019-02-23T20:45:08.713Z,103760.09
2019-02-23T20:47:17.389Z,103761.27
2019-02-23T20:48:22.283Z,103754.73
2019-02-23T21:01:11.536Z,103753.49
2019-02-23T21:02:15.967Z,103754.30
2019-02-23T21:03:20.353Z,103748.17
2019-02-23T21:07:35.640Z,103750.15
2019-02-23T21:08:41.050Z,103750.18
2019-02-23T21:10:49.295Z,103746.09
2019-02-23T21:11:53.719Z,103753.88
2019-02-23T21:16:15.248Z,103749.80
2019-02-23T21:17:20.156Z,103750.48
2019-02-23T21:19:28.089Z,103745.09
2019-02-23T21:21:36.095Z,103746.69
2019-02-23T21:24:47.608Z,103739.16
2019-02-23T21:27:59.198Z,103730.36
2019-02-23T21:30:10.068Z,103729.34
2019-02-23T21:32:18.037Z,103723.95
2019-02-23T21:36:33.384Z,103727.67
2019-02-23T21:45:03.665Z,103713.80
2019-02-23T21:46:08.376Z,103714.55
2019-02-23T21:48:16.375Z,103710.50
2019-02-23T21:50:24.331Z,103712.22
2019-02-23T21:51:28.787Z,103714.41
2019-02-23T21:55:44.192Z,103719.06
2019-02-23T21:56:48.889Z,103715.97
2019-02-23T21:57:53.313Z,103718.99
2019-02-23T22:03:13.970Z,103722.30
2019-02-23T22:05:22.999Z,103722.67
2019-02-23T22:06:27.431Z,103718.75
2019-02-23T22:07:31.866Z,103710.30
2019-02-23T22:08:36.233Z,103716.83
2019-02-23T22:12:51.446Z,103717.48
2019-02-23T22:13:55.853Z,103715.28
2019-02-23T22:15:00.497Z,103711.37
2019-02-23T22:16:05.114Z,103713.09
2019-02-23T22:17:10.606Z,103705.53
2019-02-23T22:21:25.695Z,103711.06
2019-02-23T22:23:33.650Z,103707.48
2019-02-23T22:24:38.294Z,103715.73
2019-02-23T22:28:53.755Z,103719.41
2019-02-23T22:29:58.111Z,103718.58
2019-02-23T22:33:10.819Z,103722.08
2019-02-23T22:35:19.655Z,103721.87
2019-02-23T22:36:24.369Z,103720.98
2019-02-23T22:37:28.977Z,103722.22
2019-02-23T22:38:34.643Z,103721.77
2019-02-23T22:42:50.191Z,103725.55
2019-02-23T22:43:54.622Z,103723.69
2019-02-23T22:46:02.698Z,103720.08
2019-02-23T22:48:10.620Z,103722.62
2019-02-23T22:49:14.987Z,103720.90
2019-02-23T22:51:23.067Z,103722.13
2019-02-23T22:54:34.615Z,103725.42
2019-02-23T22:55:39.028Z,103727.58
2019-02-23T22:59:55.191Z,103729.64
2019-02-23T23:00:59.580Z,103734.78
2019-02-23T23:02:05.173Z,103733.41
2019-02-23T23:03:09.913Z,103736.43
2019-02-23T23:04:14.531Z,103729.98
2019-02-23T23:07:26.184Z,103735.09
2019-02-23T23:08:30.499Z,103738.14
2019-02-23T23:09:35.219Z,103736.25
2019-02-23T23:12:46.809Z,103726.04
2019-02-23T23:13:51.215Z,103726.79
2019-02-23T23:14:57.254Z,103725.89
2019-02-23T23:17:05.263Z,103722.32
2019-02-23T23:19:13.369Z,103721.09
2019-02-23T23:20:17.748Z,103723.62
2019-02-23T23:23:29.358Z,103713.48
2019-02-23T23:24:33.704Z,103718.97
2019-02-23T23:25:39.881Z,103712.38
2019-02-23T23:26:44.245Z,103714.16
2019-02-23T23:27:49.563Z,103717.19
2019-02-23T23:31:01.569Z,103717.52
2019-02-23T23:39:31.927Z,103728.97
2019-02-23T23:40:36.291Z,103723.75
2019-02-23T23:43:47.921Z,103723.59
2019-02-23T23:44:52.269Z,103723.59
2019-02-23T23:47:00.380Z,103726.98
2019-02-23T23:50:11.929Z,103725.83
2019-02-23T23:51:16.536Z,103730.56
2019-02-23T23:54:29.314Z,103726.17
2019-02-23T23:57:40.957Z,103726.91
2019-02-23T23:58:45.364Z,103730.00
